createdAt,value
2023-04-26T00:00:51.498Z,5.41
2023-04-26T00:01:52.144Z,5.41
2023-04-26T00:02:52.467Z,5.40
2023-04-26T00:03:52.344Z,5.40
2023-04-26T00:04:52.221Z,5.39
2023-04-26T00:05:51.496Z,5.39
2023-04-26T00:06:51.438Z,5.38
2023-04-26T00:07:52.078Z,5.37
2023-04-26T00:08:51.713Z,5.38
2023-04-26T00:09:52.090Z,5.37
2023-04-26T00:10:52.028Z,5.37
2023-04-26T00:11:51.373Z,5.36
2023-04-26T00:12:51.354Z,5.36
2023-04-26T00:13:53.270Z,5.36
2023-04-26T00:14:51.329Z,5.36
2023-04-26T00:15:52.016Z,5.35
2023-04-26T00:16:51.345Z,5.35
2023-04-26T00:17:51.329Z,5.35
2023-04-26T00:18:52.152Z,5.34
2023-04-26T00:19:51.950Z,5.34
2023-04-26T00:20:51.952Z,5.33
2023-04-26T00:21:51.245Z,5.32
2023-04-26T00:22:51.258Z,5.32
2023-04-26T00:23:51.240Z,5.30
2023-04-26T00:24:51.893Z,5.30
2023-04-26T00:25:51.890Z,5.29
2023-04-26T00:26:51.885Z,5.29
2023-04-26T00:27:51.870Z,5.29
2023-04-26T00:28:52.156Z,5.28
2023-04-26T00:29:51.852Z,5.27
2023-04-26T00:30:51.853Z,5.26
2023-04-26T00:31:51.224Z,5.25
2023-04-26T00:32:51.195Z,5.26
2023-04-26T00:33:51.132Z,5.24
2023-04-26T00:34:51.137Z,5.24
2023-04-26T00:35:51.107Z,5.24
2023-04-26T00:36:51.098Z,5.23
2023-04-26T00:37:51.769Z,5.23
2023-04-26T00:38:52.058Z,5.22
2023-04-26T00:39:51.058Z,5.22
2023-04-26T00:40:51.064Z,5.22
2023-04-26T00:41:51.055Z,5.21
2023-04-26T00:42:51.970Z,5.21
2023-04-26T00:43:51.687Z,5.21
2023-04-26T00:44:51.022Z,5.21
2023-04-26T00:45:51.066Z,5.20
2023-04-26T00:46:50.998Z,5.20
2023-04-26T00:47:51.690Z,5.19
2023-04-26T00:48:51.179Z,5.19
2023-04-26T00:49:51.643Z,5.20
2023-04-26T00:50:51.667Z,5.18
2023-04-26T00:51:51.619Z,5.18
2023-04-26T00:52:50.961Z,5.17
2023-04-26T00:53:50.930Z,5.16
2023-04-26T00:54:50.907Z,5.16
2023-04-26T00:55:51.620Z,5.15
2023-04-26T00:56:50.880Z,5.16
2023-04-26T00:57:50.872Z,5.15
2023-04-26T00:58:51.744Z,5.13
2023-04-26T00:59:51.561Z,5.13
2023-04-26T01:00:50.874Z,5.12
2023-04-26T01:01:50.858Z,5.12
2023-04-26T01:02:50.920Z,5.10
2023-04-26T01:03:51.116Z,5.10
2023-04-26T01:04:51.483Z,5.09
2023-04-26T01:05:51.472Z,5.07
2023-04-26T01:06:50.771Z,5.07
2023-04-26T01:07:51.462Z,5.06
2023-04-26T01:08:50.968Z,5.05
2023-04-26T01:09:51.432Z,5.04
2023-04-26T01:10:51.424Z,5.03
2023-04-26T01:11:51.410Z,5.03
2023-04-26T01:12:51.405Z,5.02
2023-04-26T01:13:51.373Z,5.02
2023-04-26T01:14:51.387Z,5.00
2023-04-26T01:15:51.370Z,5.00
2023-04-26T01:16:51.377Z,4.99
2023-04-26T01:17:50.673Z,4.98
2023-04-26T01:18:51.891Z,4.97
2023-04-26T01:19:51.324Z,4.96
2023-04-26T01:20:51.324Z,4.96
2023-04-26T01:21:50.625Z,4.95
2023-04-26T01:22:50.620Z,4.93
2023-04-26T01:23:50.621Z,4.92
2023-04-26T01:24:51.284Z,4.91
2023-04-26T01:25:50.595Z,4.90
2023-04-26T01:26:50.571Z,4.88
2023-04-26T01:27:51.252Z,4.87
2023-04-26T01:28:50.866Z,4.86
2023-04-26T01:29:50.530Z,4.84
2023-04-26T01:30:50.612Z,4.83
2023-04-26T01:31:52.460Z,4.81
2023-04-26T01:32:51.212Z,4.80
2023-04-26T01:33:51.166Z,4.79
2023-04-26T01:34:50.483Z,4.78
2023-04-26T01:35:50.485Z,4.77
2023-04-26T01:36:50.460Z,4.74
2023-04-26T01:37:51.135Z,4.73
2023-04-26T01:38:51.309Z,4.72
2023-04-26T01:39:51.119Z,4.70
2023-04-26T01:40:51.105Z,4.69
2023-04-26T01:41:51.098Z,4.67
2023-04-26T01:42:51.100Z,4.67
2023-04-26T01:43:51.059Z,4.66
2023-04-26T01:44:50.367Z,4.64
2023-04-26T01:45:50.385Z,4.63
2023-04-26T01:46:50.392Z,4.62
2023-04-26T01:47:51.060Z,4.60
2023-04-26T01:48:50.589Z,4.59
2023-04-26T01:49:50.310Z,4.58
2023-04-26T01:50:50.337Z,4.56
2023-04-26T01:51:50.326Z,4.55
2023-04-26T01:52:50.304Z,4.55
2023-04-26T01:53:50.330Z,4.54
2023-04-26T01:54:50.276Z,4.53
2023-04-26T01:55:50.960Z,4.52
2023-04-26T01:56:50.273Z,4.51
2023-04-26T01:57:50.257Z,4.49
2023-04-26T01:58:51.179Z,4.48
2023-04-26T01:59:50.897Z,4.48
2023-04-26T02:00:50.889Z,4.46
2023-04-26T02:01:50.935Z,4.45
2023-04-26T02:02:50.912Z,4.44
2023-04-26T02:03:50.272Z,4.43
2023-04-26T02:04:50.895Z,4.42
2023-04-26T02:05:50.844Z,4.41
2023-04-26T02:06:50.825Z,4.39
2023-04-26T02:07:50.211Z,4.39
2023-04-26T02:08:50.245Z,4.39
2023-04-26T02:09:50.123Z,4.36
2023-04-26T02:10:50.106Z,4.36
2023-04-26T02:11:50.103Z,4.35
2023-04-26T02:12:50.747Z,4.33
2023-04-26T02:13:50.755Z,4.32
2023-04-26T02:14:50.228Z,4.31
2023-04-26T02:15:50.121Z,4.30
2023-04-26T02:16:50.730Z,4.29
2023-04-26T02:17:50.784Z,4.28
2023-04-26T02:18:50.950Z,4.26
2023-04-26T02:19:50.000Z,4.25
2023-04-26T02:20:49.997Z,4.22
2023-04-26T02:21:49.981Z,4.21
2023-04-26T02:22:50.647Z,4.18
2023-04-26T02:23:50.656Z,4.16
2023-04-26T02:24:50.638Z,4.15
2023-04-26T02:25:50.623Z,4.14
2023-04-26T02:26:49.945Z,4.14
2023-04-26T02:27:49.948Z,4.12
2023-04-26T02:28:51.136Z,4.11
2023-04-26T02:29:50.869Z,4.11
2023-04-26T02:30:49.901Z,4.10
2023-04-26T02:31:50.681Z,4.10
2023-04-26T02:32:49.941Z,4.10
2023-04-26T02:33:50.542Z,4.08
2023-04-26T02:34:50.538Z,4.08
2023-04-26T02:35:50.525Z,4.07
2023-04-26T02:36:50.779Z,4.06
2023-04-26T02:37:50.476Z,4.06
2023-04-26T02:38:49.844Z,4.06
2023-04-26T02:39:50.740Z,4.05
2023-04-26T02:40:50.468Z,4.04
2023-04-26T02:41:50.455Z,4.03
2023-04-26T02:42:50.428Z,4.03
2023-04-26T02:43:49.749Z,4.02
2023-04-26T02:44:50.709Z,4.01
2023-04-26T02:45:50.413Z,4.00
2023-04-26T02:46:50.410Z,3.99
2023-04-26T02:47:50.437Z,3.99
2023-04-26T02:48:50.576Z,3.97
2023-04-26T02:49:49.673Z,3.97
2023-04-26T02:50:50.354Z,3.96
2023-04-26T02:51:49.696Z,3.95
2023-04-26T02:52:50.334Z,3.94
2023-04-26T02:53:50.324Z,3.94
2023-04-26T02:54:50.316Z,3.93
2023-04-26T02:55:49.626Z,3.92
2023-04-26T02:56:50.272Z,3.91
2023-04-26T02:57:50.548Z,3.91
2023-04-26T02:58:50.493Z,3.91
2023-04-26T02:59:50.518Z,3.89
2023-04-26T03:00:49.605Z,3.89
2023-04-26T03:01:50.251Z,3.89
2023-04-26T03:02:50.337Z,3.88
2023-04-26T03:03:50.310Z,3.87
2023-04-26T03:04:50.206Z,3.87
2023-04-26T03:05:49.530Z,3.86
2023-04-26T03:06:50.177Z,3.87
2023-04-26T03:07:49.483Z,3.87
2023-04-26T03:08:49.601Z,3.86
2023-04-26T03:09:50.154Z,3.86
2023-04-26T03:10:50.140Z,3.87
2023-04-26T03:11:50.416Z,3.87
2023-04-26T03:12:50.391Z,3.87
2023-04-26T03:13:50.108Z,3.87
2023-04-26T03:14:50.105Z,3.87
2023-04-26T03:15:50.097Z,3.87
2023-04-26T03:16:50.139Z,3.87
2023-04-26T03:17:50.355Z,3.88
2023-04-26T03:18:50.570Z,3.87
2023-04-26T03:19:50.315Z,3.87
2023-04-26T03:20:50.301Z,3.87
2023-04-26T03:21:50.316Z,3.87
2023-04-26T03:22:50.256Z,3.87
2023-04-26T03:23:49.420Z,3.87
2023-04-26T03:24:50.024Z,3.87
2023-04-26T03:25:49.327Z,3.87
2023-04-26T03:26:50.056Z,3.87
2023-04-26T03:27:49.288Z,3.85
2023-04-26T03:28:49.342Z,3.85
2023-04-26T03:29:49.964Z,3.85
2023-04-26T03:30:49.992Z,3.84
2023-04-26T03:31:49.292Z,3.84
2023-04-26T03:32:49.279Z,3.85
2023-04-26T03:33:49.230Z,3.84
2023-04-26T03:34:51.153Z,3.84
2023-04-26T03:35:49.210Z,3.84
2023-04-26T03:36:49.859Z,3.85
2023-04-26T03:37:52.449Z,3.84
2023-04-26T03:38:50.051Z,3.84
2023-04-26T03:39:49.842Z,3.85
2023-04-26T03:40:49.837Z,3.85
2023-04-26T03:41:49.829Z,3.85
2023-04-26T03:42:49.139Z,3.85
2023-04-26T03:43:49.807Z,3.85
2023-04-26T03:44:49.113Z,3.85
2023-04-26T03:45:49.144Z,3.85
2023-04-26T03:46:49.141Z,3.85
2023-04-26T03:47:49.800Z,3.85
2023-04-26T03:48:49.196Z,3.86
2023-04-26T03:49:49.050Z,3.86
2023-04-26T03:50:49.081Z,3.85
2023-04-26T03:51:49.289Z,3.86
2023-04-26T03:52:49.098Z,3.85
2023-04-26T03:53:49.091Z,3.86
2023-04-26T03:54:49.009Z,3.85
2023-04-26T03:55:49.016Z,3.85
2023-04-26T03:56:49.183Z,3.85
2023-04-26T03:57:49.205Z,3.85
2023-04-26T03:58:49.041Z,3.86
2023-04-26T03:59:49.646Z,3.87
2023-04-26T04:00:48.954Z,3.87
2023-04-26T04:01:50.919Z,3.89
2023-04-26T04:02:49.760Z,3.88
2023-04-26T04:03:49.751Z,3.90
2023-04-26T04:04:49.762Z,3.90
2023-04-26T04:05:49.574Z,3.92
2023-04-26T04:06:48.914Z,3.92
2023-04-26T04:07:48.925Z,3.91
2023-04-26T04:08:48.946Z,3.92
2023-04-26T04:09:49.525Z,3.93
2023-04-26T04:10:49.529Z,3.94
2023-04-26T04:11:48.902Z,3.94
2023-04-26T04:12:48.812Z,3.96
2023-04-26T04:13:49.491Z,3.96
2023-04-26T04:14:49.478Z,3.97
2023-04-26T04:15:48.894Z,3.97
2023-04-26T04:16:48.787Z,3.98
2023-04-26T04:17:49.490Z,3.99
2023-04-26T04:18:49.613Z,4.01
2023-04-26T04:19:48.747Z,4.01
2023-04-26T04:20:49.446Z,4.03
2023-04-26T04:21:48.752Z,4.03
2023-04-26T04:22:49.407Z,4.05
2023-04-26T04:23:48.730Z,4.06
2023-04-26T04:24:49.379Z,4.08
2023-04-26T04:25:49.360Z,4.10
2023-04-26T04:26:48.714Z,4.12
2023-04-26T04:27:48.697Z,4.14
2023-04-26T04:28:49.410Z,4.16
2023-04-26T04:29:49.318Z,4.18
2023-04-26T04:30:48.663Z,4.20
2023-04-26T04:31:48.930Z,4.22
2023-04-26T04:32:49.306Z,4.24
2023-04-26T04:33:48.590Z,4.26
2023-04-26T04:34:49.703Z,4.27
2023-04-26T04:35:49.254Z,4.29
2023-04-26T04:36:48.583Z,4.30
2023-04-26T04:37:49.232Z,4.31
2023-04-26T04:38:49.236Z,4.33
2023-04-26T04:39:48.534Z,4.38
2023-04-26T04:40:49.197Z,4.44
2023-04-26T04:41:49.213Z,4.47
2023-04-26T04:42:49.188Z,4.49
2023-04-26T04:43:49.176Z,4.51
2023-04-26T04:44:49.161Z,4.52
2023-04-26T04:45:48.463Z,4.54
2023-04-26T04:46:49.177Z,4.56
2023-04-26T04:47:49.203Z,4.60
2023-04-26T04:48:49.116Z,4.63
2023-04-26T04:49:48.438Z,4.67
2023-04-26T04:50:49.094Z,4.71
2023-04-26T04:51:49.065Z,4.76
2023-04-26T04:52:48.396Z,4.81
2023-04-26T04:53:48.384Z,4.91
2023-04-26T04:54:49.056Z,5.09
2023-04-26T04:55:49.046Z,5.44
2023-04-26T04:56:49.016Z,5.84
2023-04-26T04:57:49.027Z,6.24
2023-04-26T04:58:49.086Z,6.65
2023-04-26T04:59:48.315Z,7.10
2023-04-26T05:00:48.308Z,7.55
2023-04-26T05:01:48.378Z,8.02
2023-04-26T05:02:49.080Z,8.48
2023-04-26T05:03:49.043Z,8.96
2023-04-26T05:04:48.988Z,9.42
2023-04-26T05:05:48.934Z,9.87
2023-04-26T05:06:48.252Z,10.31
2023-04-26T05:07:48.231Z,10.76
2023-04-26T05:08:48.241Z,11.19
2023-04-26T05:09:48.216Z,11.63
2023-04-26T05:10:48.918Z,12.07
2023-04-26T05:11:48.200Z,12.49
2023-04-26T05:12:48.860Z,12.89
2023-04-26T05:13:50.867Z,13.29
2023-04-26T05:14:48.840Z,13.66
2023-04-26T05:15:48.833Z,14.03
2023-04-26T05:16:48.872Z,14.37
2023-04-26T05:17:48.166Z,14.72
2023-04-26T05:18:48.137Z,15.07
2023-04-26T05:19:48.788Z,15.40
2023-04-26T05:20:48.782Z,15.72
2023-04-26T05:21:48.746Z,15.59
2023-04-26T05:22:48.758Z,16.02
2023-04-26T05:23:48.755Z,16.37
2023-04-26T05:24:48.065Z,16.71
2023-04-26T05:25:48.731Z,17.04
2023-04-26T05:26:48.066Z,17.36
2023-04-26T05:27:48.016Z,17.66
2023-04-26T05:28:48.016Z,17.99
2023-04-26T05:29:48.683Z,18.29
2023-04-26T05:30:48.669Z,18.60
2023-04-26T05:31:48.683Z,18.91
2023-04-26T05:32:48.690Z,19.20
2023-04-26T05:33:48.639Z,19.49
2023-04-26T05:34:47.940Z,19.78
2023-04-26T05:35:48.617Z,20.03
2023-04-26T05:36:48.585Z,20.28
2023-04-26T05:37:48.594Z,20.52
2023-04-26T05:38:48.584Z,20.77
2023-04-26T05:39:47.883Z,21.02
2023-04-26T05:40:47.875Z,21.26
2023-04-26T05:41:48.532Z,21.48
2023-04-26T05:42:48.545Z,21.69
2023-04-26T05:43:48.534Z,21.91
2023-04-26T05:44:47.833Z,22.13
2023-04-26T05:45:48.530Z,22.37
2023-04-26T05:46:48.478Z,22.60
2023-04-26T05:47:47.917Z,22.85
2023-04-26T05:48:48.481Z,23.06
2023-04-26T05:49:47.770Z,23.27
2023-04-26T05:50:47.765Z,23.47
2023-04-26T05:51:48.432Z,23.70
2023-04-26T05:52:48.428Z,23.91
2023-04-26T05:53:48.430Z,24.13
2023-04-26T05:54:48.418Z,24.36
2023-04-26T05:55:48.402Z,24.59
2023-04-26T05:56:48.376Z,24.80
2023-04-26T05:57:47.750Z,24.97
2023-04-26T05:58:48.364Z,25.13
2023-04-26T05:59:47.671Z,25.31
2023-04-26T06:00:47.659Z,25.48
2023-04-26T06:01:48.364Z,25.65
2023-04-26T06:02:47.817Z,25.84
2023-04-26T06:03:48.676Z,26.02
2023-04-26T06:04:48.461Z,26.18
2023-04-26T06:05:47.637Z,26.30
2023-04-26T06:06:48.270Z,26.37
2023-04-26T06:07:48.281Z,26.50
2023-04-26T06:08:47.570Z,26.64
2023-04-26T06:09:47.569Z,26.69
2023-04-26T06:10:48.234Z,26.82
2023-04-26T06:11:48.261Z,26.94
2023-04-26T06:12:48.264Z,27.06
2023-04-26T06:13:48.218Z,27.13
2023-04-26T06:14:48.189Z,27.27
2023-04-26T06:15:47.513Z,27.37
2023-04-26T06:16:47.555Z,27.51
2023-04-26T06:17:47.479Z,27.59
2023-04-26T06:18:48.152Z,27.68
2023-04-26T06:19:48.133Z,27.78
2023-04-26T06:20:47.441Z,27.87
2023-04-26T06:21:48.108Z,28.01
2023-04-26T06:22:48.123Z,28.17
2023-04-26T06:23:48.093Z,28.30
2023-04-26T06:24:48.082Z,28.52
2023-04-26T06:25:47.388Z,28.76
2023-04-26T06:26:47.383Z,28.94
2023-04-26T06:27:47.358Z,29.11
2023-04-26T06:28:47.352Z,29.05
2023-04-26T06:29:48.031Z,28.91
2023-04-26T06:30:48.101Z,28.84
2023-04-26T06:31:47.998Z,28.68
2023-04-26T06:32:48.041Z,28.60
2023-04-26T06:33:47.985Z,28.69
2023-04-26T06:34:47.300Z,28.79
2023-04-26T06:35:47.971Z,28.98
2023-04-26T06:36:47.940Z,29.13
2023-04-26T06:37:47.280Z,29.25
2023-04-26T06:38:47.252Z,29.51
2023-04-26T06:39:47.231Z,29.83
2023-04-26T06:40:47.911Z,30.15
2023-04-26T06:41:47.285Z,30.44
2023-04-26T06:42:47.201Z,30.72
2023-04-26T06:43:47.202Z,30.97
2023-04-26T06:44:47.869Z,31.09
2023-04-26T06:45:47.856Z,31.08
2023-04-26T06:46:47.948Z,31.17
2023-04-26T06:47:47.182Z,31.24
2023-04-26T06:48:47.163Z,30.57
2023-04-26T06:49:47.139Z,30.32
2023-04-26T06:50:47.133Z,30.66
2023-04-26T06:51:47.776Z,31.10
2023-04-26T06:52:47.889Z,31.47
2023-04-26T06:53:47.122Z,31.79
2023-04-26T06:54:56.393Z,31.98
2023-04-26T06:55:48.749Z,32.30
2023-04-26T06:56:47.094Z,32.29
2023-04-26T06:57:47.731Z,32.06
2023-04-26T06:58:47.039Z,31.73
2023-04-26T06:59:47.709Z,31.90
2023-04-26T07:00:47.018Z,31.45
2023-04-26T07:01:47.093Z,31.47
2023-04-26T07:02:47.798Z,31.04
2023-04-26T07:03:47.158Z,30.72
2023-04-26T07:04:47.901Z,30.47
2023-04-26T07:05:46.962Z,29.69
2023-04-26T07:06:46.978Z,29.10
2023-04-26T07:07:46.952Z,28.61
2023-04-26T07:08:47.622Z,28.45
2023-04-26T07:09:47.622Z,27.81
2023-04-26T07:10:47.593Z,27.18
2023-04-26T07:11:47.587Z,26.74
2023-04-26T07:12:46.952Z,26.81
2023-04-26T07:13:47.665Z,26.84
2023-04-26T07:14:47.544Z,26.72
2023-04-26T07:15:47.820Z,26.35
2023-04-26T07:16:46.903Z,25.99
2023-04-26T07:17:47.540Z,25.61
2023-04-26T07:18:46.824Z,25.14
2023-04-26T07:19:46.811Z,24.60
2023-04-26T07:20:47.489Z,24.04
2023-04-26T07:21:47.454Z,23.45
2023-04-26T07:22:47.492Z,22.92
2023-04-26T07:23:47.462Z,22.43
2023-04-26T07:24:47.443Z,22.01
2023-04-26T07:25:46.750Z,21.68
2023-04-26T07:26:47.398Z,21.44
2023-04-26T07:27:47.524Z,21.27
2023-04-26T07:28:47.399Z,21.14
2023-04-26T07:29:47.388Z,21.06
2023-04-26T07:30:46.708Z,20.97
2023-04-26T07:31:46.752Z,20.88
2023-04-26T07:32:46.730Z,20.80
2023-04-26T07:33:46.688Z,20.82
2023-04-26T07:34:46.654Z,20.92
2023-04-26T07:35:46.634Z,21.18
2023-04-26T07:36:46.637Z,21.41
2023-04-26T07:37:47.314Z,21.54
2023-04-26T07:38:47.294Z,21.97
2023-04-26T07:39:46.598Z,22.50
2023-04-26T07:40:46.582Z,22.87
2023-04-26T07:41:46.598Z,24.14
2023-04-26T07:42:46.585Z,24.33
2023-04-26T07:43:46.558Z,24.95
2023-04-26T07:44:47.224Z,25.88
2023-04-26T07:45:46.552Z,26.24
2023-04-26T07:46:47.184Z,26.94
2023-04-26T07:47:46.559Z,27.34
2023-04-26T07:48:46.508Z,28.01
2023-04-26T07:49:47.841Z,28.45
2023-04-26T07:50:46.466Z,28.89
2023-04-26T07:51:47.131Z,28.99
2023-04-26T07:52:47.135Z,29.54
2023-04-26T07:53:48.428Z,30.18
2023-04-26T07:54:47.114Z,31.31
2023-04-26T07:55:47.112Z,31.59
2023-04-26T07:56:47.077Z,31.05
2023-04-26T07:57:47.082Z,31.05
2023-04-26T07:58:46.397Z,29.71
2023-04-26T07:59:46.379Z,28.82
2023-04-26T08:00:47.049Z,28.11
2023-04-26T08:01:46.436Z,27.40
2023-04-26T08:02:46.482Z,27.39
2023-04-26T08:03:47.194Z,27.32
2023-04-26T08:04:46.533Z,26.95
2023-04-26T08:05:46.539Z,26.40
2023-04-26T08:06:46.968Z,26.53
2023-04-26T08:07:46.978Z,26.07
2023-04-26T08:08:46.276Z,25.62
2023-04-26T08:09:46.310Z,25.24
2023-04-26T08:10:46.260Z,24.80
2023-04-26T08:11:46.346Z,24.55
2023-04-26T08:12:46.268Z,24.15
2023-04-26T08:13:46.236Z,24.13
2023-04-26T08:14:46.213Z,24.26
2023-04-26T08:15:46.884Z,24.35
2023-04-26T08:16:46.265Z,24.49
2023-04-26T08:17:46.240Z,24.54
2023-04-26T08:18:47.150Z,24.58
2023-04-26T08:19:46.840Z,24.67
2023-04-26T08:20:46.158Z,24.74
2023-04-26T08:21:46.805Z,24.73
2023-04-26T08:22:46.143Z,24.64
2023-04-26T08:23:46.796Z,24.42
2023-04-26T08:24:46.785Z,24.20
2023-04-26T08:25:47.892Z,24.05
2023-04-26T08:26:46.746Z,23.91
2023-04-26T08:27:46.081Z,23.86
2023-04-26T08:28:46.063Z,23.83
2023-04-26T08:29:46.064Z,23.86
2023-04-26T08:30:46.734Z,24.08
2023-04-26T08:31:46.696Z,24.30
2023-04-26T08:32:46.722Z,24.68
2023-04-26T08:33:46.690Z,25.02
2023-04-26T08:34:46.692Z,25.16
2023-04-26T08:35:45.981Z,25.27
2023-04-26T08:36:46.654Z,25.23
2023-04-26T08:37:46.645Z,25.19
2023-04-26T08:38:46.649Z,25.22
2023-04-26T08:39:45.943Z,25.07
2023-04-26T08:40:46.616Z,24.54
2023-04-26T08:41:45.962Z,24.13
2023-04-26T08:42:45.914Z,23.91
2023-04-26T08:43:46.579Z,23.94
2023-04-26T08:44:46.568Z,24.04
2023-04-26T08:45:46.574Z,24.10
2023-04-26T08:46:45.917Z,24.23
2023-04-26T08:47:45.929Z,24.27
2023-04-26T08:48:45.853Z,24.34
2023-04-26T08:49:45.825Z,24.35
2023-04-26T08:50:45.823Z,24.25
2023-04-26T08:51:45.816Z,24.06
2023-04-26T08:52:46.464Z,23.76
2023-04-26T08:53:45.781Z,23.62
2023-04-26T08:54:46.464Z,23.64
2023-04-26T08:55:45.762Z,23.59
2023-04-26T08:56:46.441Z,23.65
2023-04-26T08:57:46.413Z,23.57
2023-04-26T08:58:46.434Z,23.43
2023-04-26T08:59:46.411Z,23.34
2023-04-26T09:00:46.402Z,23.25
2023-04-26T09:01:46.418Z,23.04
2023-04-26T09:02:45.835Z,22.86
2023-04-26T09:03:45.921Z,22.75
2023-04-26T09:04:45.703Z,22.67
2023-04-26T09:05:45.733Z,22.52
2023-04-26T09:06:46.316Z,22.29
2023-04-26T09:07:45.638Z,22.04
2023-04-26T09:08:46.334Z,21.83
2023-04-26T09:09:46.299Z,21.61
2023-04-26T09:10:45.628Z,21.39
2023-04-26T09:11:46.248Z,21.17
2023-04-26T09:12:45.606Z,20.92
2023-04-26T09:13:45.568Z,20.64
2023-04-26T09:14:45.566Z,20.35
2023-04-26T09:15:45.591Z,20.06
2023-04-26T09:16:45.576Z,19.80
2023-04-26T09:17:46.303Z,19.55
2023-04-26T09:18:46.207Z,19.34
2023-04-26T09:19:46.197Z,19.16
2023-04-26T09:20:45.510Z,18.98
2023-04-26T09:21:46.178Z,18.79
2023-04-26T09:22:45.509Z,18.55
2023-04-26T09:23:45.473Z,18.28
2023-04-26T09:24:46.131Z,18.00
2023-04-26T09:25:46.414Z,17.71
2023-04-26T09:26:46.111Z,17.44
2023-04-26T09:27:45.440Z,17.19
2023-04-26T09:28:45.406Z,16.97
2023-04-26T09:29:46.081Z,16.77
2023-04-26T09:30:46.096Z,16.59
2023-04-26T09:31:48.614Z,16.46
2023-04-26T09:32:45.457Z,16.37
2023-04-26T09:33:45.349Z,16.31
2023-04-26T09:34:45.367Z,16.26
2023-04-26T09:35:46.016Z,16.22
2023-04-26T09:36:46.009Z,16.20
2023-04-26T09:37:57.523Z,16.18
2023-04-26T09:38:46.286Z,16.19
2023-04-26T09:39:45.973Z,16.21
2023-04-26T09:40:45.973Z,16.24
2023-04-26T09:41:45.973Z,16.24
2023-04-26T09:42:45.943Z,16.21
2023-04-26T09:43:45.257Z,16.16
2023-04-26T09:44:45.926Z,16.15
2023-04-26T09:45:46.203Z,16.14
2023-04-26T09:46:46.199Z,16.16
2023-04-26T09:47:46.233Z,16.23
2023-04-26T09:48:46.666Z,16.31
2023-04-26T09:49:46.124Z,16.42
2023-04-26T09:50:46.123Z,16.52
2023-04-26T09:51:46.126Z,16.64
2023-04-26T09:52:46.097Z,16.75
2023-04-26T09:53:45.822Z,16.88
2023-04-26T09:54:46.079Z,17.06
2023-04-26T09:55:45.804Z,17.29
2023-04-26T09:56:46.095Z,17.44
2023-04-26T09:57:45.784Z,17.47
2023-04-26T09:58:46.042Z,17.47
2023-04-26T09:59:45.756Z,17.42
2023-04-26T10:00:46.064Z,17.31
2023-04-26T10:01:45.756Z,17.20
2023-04-26T10:02:46.121Z,17.09
2023-04-26T10:03:46.086Z,16.97
2023-04-26T10:04:46.013Z,16.87
2023-04-26T10:05:45.960Z,16.77
2023-04-26T10:06:45.683Z,16.67
2023-04-26T10:07:45.962Z,16.52
2023-04-26T10:08:45.661Z,16.39
2023-04-26T10:09:45.925Z,16.24
2023-04-26T10:10:45.951Z,16.11
2023-04-26T10:11:45.631Z,15.97
2023-04-26T10:12:45.913Z,15.85
2023-04-26T10:13:45.906Z,15.71
2023-04-26T10:14:45.871Z,15.60
2023-04-26T10:15:45.589Z,15.49
2023-04-26T10:16:45.902Z,15.38
2023-04-26T10:17:45.867Z,15.29
2023-04-26T10:18:45.557Z,15.19
2023-04-26T10:19:45.804Z,15.14
2023-04-26T10:20:45.537Z,15.10
2023-04-26T10:21:46.796Z,15.05
2023-04-26T10:22:45.785Z,15.01
2023-04-26T10:23:44.821Z,14.99
2023-04-26T10:24:45.493Z,14.97
2023-04-26T10:25:44.812Z,14.95
2023-04-26T10:26:45.466Z,14.94
2023-04-26T10:27:45.745Z,14.94
2023-04-26T10:28:44.778Z,14.95
2023-04-26T10:29:45.448Z,14.97
2023-04-26T10:30:44.754Z,15.01
2023-04-26T10:31:45.691Z,15.08
2023-04-26T10:32:45.407Z,15.17
2023-04-26T10:33:45.660Z,15.24
2023-04-26T10:34:45.388Z,15.32
2023-04-26T10:35:45.652Z,15.38
2023-04-26T10:36:45.620Z,15.44
2023-04-26T10:37:45.338Z,15.52
2023-04-26T10:38:45.347Z,15.61
2023-04-26T10:39:44.657Z,15.67
2023-04-26T10:40:44.624Z,15.72
2023-04-26T10:41:44.628Z,15.79
2023-04-26T10:42:44.633Z,15.84
2023-04-26T10:43:45.296Z,15.90
2023-04-26T10:44:44.593Z,15.98
2023-04-26T10:45:44.623Z,16.07
2023-04-26T10:46:45.258Z,16.17
2023-04-26T10:47:45.257Z,16.27
2023-04-26T10:48:45.233Z,16.38
2023-04-26T10:49:45.375Z,16.56
2023-04-26T10:50:45.475Z,16.76
2023-04-26T10:51:46.455Z,16.92
2023-04-26T10:52:45.479Z,17.07
2023-04-26T10:53:45.175Z,17.22
2023-04-26T10:54:45.171Z,17.36
2023-04-26T10:55:45.426Z,17.53
2023-04-26T10:56:44.456Z,17.73
2023-04-26T10:57:45.116Z,17.91
2023-04-26T10:58:45.123Z,18.09
2023-04-26T10:59:54.266Z,18.26
2023-04-26T11:00:46.879Z,18.42
2023-04-26T11:01:44.448Z,18.56
2023-04-26T11:02:45.182Z,18.71
2023-04-26T11:03:45.165Z,18.82
2023-04-26T11:04:45.125Z,18.90
2023-04-26T11:05:44.372Z,18.97
2023-04-26T11:06:45.065Z,19.03
2023-04-26T11:07:45.016Z,19.10
2023-04-26T11:08:44.342Z,19.14
2023-04-26T11:09:45.008Z,19.17
2023-04-26T11:10:44.306Z,19.24
2023-04-26T11:11:44.305Z,19.33
2023-04-26T11:12:44.322Z,19.41
2023-04-26T11:13:44.278Z,19.44
2023-04-26T11:14:44.287Z,19.44
2023-04-26T11:15:44.293Z,19.39
2023-04-26T11:16:44.373Z,19.31
2023-04-26T11:17:44.336Z,19.26
2023-04-26T11:18:45.192Z,19.22
2023-04-26T11:19:44.900Z,19.22
2023-04-26T11:20:44.205Z,19.23
2023-04-26T11:21:44.878Z,19.20
2023-04-26T11:22:44.239Z,19.17
2023-04-26T11:23:44.852Z,19.12
2023-04-26T11:24:44.859Z,19.08
2023-04-26T11:25:44.837Z,19.04
2023-04-26T11:26:44.155Z,19.03
2023-04-26T11:27:44.793Z,19.00
2023-04-26T11:28:44.134Z,18.93
2023-04-26T11:29:44.795Z,18.87
2023-04-26T11:30:45.047Z,18.84
2023-04-26T11:31:45.057Z,18.81
2023-04-26T11:32:44.143Z,18.79
2023-04-26T11:33:44.755Z,18.76
2023-04-26T11:34:44.738Z,18.77
2023-04-26T11:35:44.734Z,18.73
2023-04-26T11:36:44.731Z,18.65
2023-04-26T11:37:44.687Z,18.61
2023-04-26T11:38:44.697Z,18.59
2023-04-26T11:39:44.009Z,18.60
2023-04-26T11:40:44.683Z,18.61
2023-04-26T11:41:44.935Z,18.65
2023-04-26T11:42:44.631Z,18.72
2023-04-26T11:43:44.685Z,18.81
2023-04-26T11:44:47.600Z,18.91
2023-04-26T11:45:44.620Z,19.00
2023-04-26T11:46:44.674Z,19.00
2023-04-26T11:47:44.614Z,19.01
2023-04-26T11:48:43.906Z,19.04
2023-04-26T11:49:44.575Z,19.02
2023-04-26T11:50:43.899Z,18.98
2023-04-26T11:51:43.874Z,18.90
2023-04-26T11:52:43.879Z,18.86
2023-04-26T11:53:44.541Z,18.81
2023-04-26T11:54:44.530Z,18.76
2023-04-26T11:55:44.509Z,18.71
2023-04-26T11:56:43.824Z,18.68
2023-04-26T11:57:43.829Z,18.68
2023-04-26T11:58:44.479Z,18.68
2023-04-26T11:59:44.480Z,18.69
2023-04-26T12:00:44.457Z,18.68
2023-04-26T12:01:44.476Z,18.65
2023-04-26T12:02:44.526Z,18.63
2023-04-26T12:03:43.844Z,18.61
2023-04-26T12:04:45.017Z,18.61
2023-04-26T12:05:44.397Z,18.61
2023-04-26T12:06:44.674Z,18.63
2023-04-26T12:07:44.381Z,18.62
2023-04-26T12:08:44.364Z,18.64
2023-04-26T12:09:44.376Z,18.67
2023-04-26T12:10:44.345Z,18.71
2023-04-26T12:11:44.314Z,18.74
2023-04-26T12:12:44.577Z,18.77
2023-04-26T12:13:44.352Z,18.78
2023-04-26T12:14:44.302Z,18.81
2023-04-26T12:15:44.617Z,18.85
2023-04-26T12:16:44.650Z,18.88
2023-04-26T12:17:44.556Z,18.91
2023-04-26T12:18:45.525Z,18.93
2023-04-26T12:19:44.266Z,18.93
2023-04-26T12:20:44.238Z,18.91
2023-04-26T12:21:44.540Z,18.89
2023-04-26T12:22:44.474Z,18.86
2023-04-26T12:23:44.206Z,18.86
2023-04-26T12:24:44.209Z,18.86
2023-04-26T12:25:43.510Z,18.84
2023-04-26T12:26:44.487Z,18.83
2023-04-26T12:27:44.162Z,18.84
2023-04-26T12:28:44.162Z,18.86
2023-04-26T12:29:44.160Z,18.87
2023-04-26T12:30:44.403Z,18.89
2023-04-26T12:31:44.433Z,18.92
2023-04-26T12:32:44.410Z,18.97
2023-04-26T12:33:44.386Z,19.01
2023-04-26T12:34:44.091Z,19.05
2023-04-26T12:35:44.102Z,19.10
2023-04-26T12:36:44.356Z,19.14
2023-04-26T12:37:44.053Z,19.17
2023-04-26T12:38:44.307Z,19.20
2023-04-26T12:39:44.339Z,19.26
2023-04-26T12:40:45.288Z,19.26
2023-04-26T12:41:44.268Z,19.27
2023-04-26T12:42:44.257Z,19.29
2023-04-26T12:43:44.032Z,19.33
2023-04-26T12:44:43.979Z,19.37
2023-04-26T12:45:44.257Z,19.42
2023-04-26T12:46:44.294Z,19.44
2023-04-26T12:47:44.063Z,19.49
2023-04-26T12:48:43.935Z,19.54
2023-04-26T12:49:43.928Z,19.59
2023-04-26T12:50:43.912Z,19.62
2023-04-26T12:51:43.888Z,19.65
2023-04-26T12:52:45.158Z,19.67
2023-04-26T12:53:43.879Z,19.70
2023-04-26T12:54:44.142Z,19.75
2023-04-26T12:55:43.862Z,19.79
2023-04-26T12:56:44.074Z,19.81
2023-04-26T12:57:43.871Z,19.84
2023-04-26T12:58:43.834Z,19.88
2023-04-26T12:59:43.819Z,19.94
2023-04-26T13:00:44.779Z,19.99
2023-04-26T13:01:43.807Z,20.00
2023-04-26T13:02:44.214Z,20.01